sensor_id;sensor_type;location;lat;lon;timestamp;temperature;humidity
30134;DHT22;16946;49.984;10.672;2022-08-04T00:00:07;19.70;99.90
30134;DHT22;16946;49.984;10.672;2022-08-04T00:00:39;19.90;99.90
30134;DHT22;16946;49.984;10.672;2022-08-04T00:01:24;19.80;99.90
30134;DHT22;16946;49.984;10.672;2022-08-04T00:02:12;19.80;99.90
30134;DHT22;16946;49.984;10.672;2022-08-04T00:03:53;19.60;99.90
30134;DHT22;16946;49.984;10.672;2022-08-04T00:04:34;19.40;99.90
30134;DHT22;16946;49.984;10.672;2022-08-04T00:05:43;19.30;99.90
30134;DHT22;16946;49.984;10.672;2022-08-04T00:06:21;19.20;99.90
30134;DHT22;16946;49.984;10.672;2022-08-04T00:07:03;19.10;99.90
30134;DHT22;16946;49.984;10.672;2022-08-04T00:07:47;19.10;99.90
30134;DHT22;16946;49.984;10.672;2022-08-04T00:08:33;19.00;99.90
30134;DHT22;16946;49.984;10.672;2022-08-04T00:09:16;19.10;99.90
30134;DHT22;16946;49.984;10.672;2022-08-04T00:09:58;19.10;99.90
30134;DHT22;16946;49.984;10.672;2022-08-04T00:10:31;19.00;99.90
30134;DHT22;16946;49.984;10.672;2022-08-04T00:11:07;18.90;99.90
30134;DHT22;16946;49.984;10.672;2022-08-04T00:11:44;18.90;99.90
30134;DHT22;16946;49.984;10.672;2022-08-04T00:12:16;18.90;99.90
30134;DHT22;16946;49.984;10.672;2022-08-04T00:12:50;18.90;99.90
30134;DHT22;16946;49.984;10.672;2022-08-04T00:13:25;19.00;99.90
30134;DHT22;16946;49.984;10.672;2022-08-04T00:14:03;19.00;99.90
30134;DHT22;16946;49.984;10.672;2022-08-04T00:14:37;19.10;99.90
30134;DHT22;16946;49.984;10.672;2022-08-04T00:15:14;19.10;99.90
30134;DHT22;16946;49.984;10.672;2022-08-04T00:15:45;19.10;99.90
30134;DHT22;16946;49.984;10.672;2022-08-04T00:16:16;19.00;99.90
30134;DHT22;16946;49.984;10.672;2022-08-04T00:16:47;18.90;99.90
30134;DHT22;16946;49.984;10.672;2022-08-04T00:17:28;18.80;99.90
30134;DHT22;16946;49.984;10.672;2022-08-04T00:18:03;18.80;99.90
30134;DHT22;16946;49.984;10.672;2022-08-04T00:18:40;18.80;99.90
30134;DHT22;16946;49.984;10.672;2022-08-04T00:19:24;18.80;99.90
30134;DHT22;16946;49.984;10.672;2022-08-04T00:20:02;18.80;99.90
30134;DHT22;16946;49.984;10.672;2022-08-04T00:20:37;18.80;99.90
30134;DHT22;16946;49.984;10.672;2022-08-04T00:21:12;18.80;99.90
30134;DHT22;16946;49.984;10.672;2022-08-04T00:21:46;18.90;99.90
30134;DHT22;16946;49.984;10.672;2022-08-04T00:22:21;19.00;99.90
30134;DHT22;16946;49.984;10.672;2022-08-04T00:22:52;19.00;99.90
30134;DHT22;16946;49.984;10.672;2022-08-04T00:23:23;19.00;99.90
30134;DHT22;16946;49.984;10.672;2022-08-04T00:23:57;19.00;99.90
30134;DHT22;16946;49.984;10.672;2022-08-04T00:24:30;19.10;99.90
30134;DHT22;16946;49.984;10.672;2022-08-04T00:25:04;19.10;99.90
30134;DHT22;16946;49.984;10.672;2022-08-04T00:25:39;19.20;99.90
30134;DHT22;16946;49.984;10.672;2022-08-04T00:26:10;19.30;99.90
30134;DHT22;16946;49.984;10.672;2022-08-04T00:26:42;19.30;99.90
30134;DHT22;16946;49.984;10.672;2022-08-04T00:27:13;19.30;99.90
30134;DHT22;16946;49.984;10.672;2022-08-04T00:27:43;19.30;99.90
30134;DHT22;16946;49.984;10.672;2022-08-04T00:28:16;19.30;99.90
30134;DHT22;16946;49.984;10.672;2022-08-04T00:28:47;19.30;99.90
30134;DHT22;16946;49.984;10.672;2022-08-04T00:29:17;19.30;99.90
30134;DHT22;16946;49.984;10.672;2022-08-04T00:29:48;19.30;99.90
30134;DHT22;16946;49.984;10.672;2022-08-04T00:30:20;19.40;99.90
30134;DHT22;16946;49.984;10.672;2022-08-04T00:30:51;19.40;99.90
30134;DHT22;16946;49.984;10.672;2022-08-04T00:31:23;19.30;99.90
30134;DHT22;16946;49.984;10.672;2022-08-04T00:31:55;19.30;99.90
30134;DHT22;16946;49.984;10.672;2022-08-04T00:32:26;19.30;99.90
30134;DHT22;16946;49.984;10.672;2022-08-04T00:32:57;19.20;99.90
30134;DHT22;16946;49.984;10.672;2022-08-04T00:33:28;19.10;99.90
30134;DHT22;16946;49.984;10.672;2022-08-04T00:33:59;19.00;99.90
30134;DHT22;16946;49.984;10.672;2022-08-04T00:34:33;19.00;99.90
30134;DHT22;16946;49.984;10.672;2022-08-04T00:35:04;18.90;99.90
30134;DHT22;16946;49.984;10.672;2022-08-04T00:35:35;18.90;99.90
30134;DHT22;16946;49.984;10.672;2022-08-04T00:36:09;18.80;99.90
30134;DHT22;16946;49.984;10.672;2022-08-04T00:36:42;18.90;99.90
30134;DHT22;16946;49.984;10.672;2022-08-04T00:37:13;19.00;99.90
30134;DHT22;16946;49.984;10.672;2022-08-04T00:37:45;19.10;99.90
30134;DHT22;16946;49.984;10.672;2022-08-04T00:38:18;19.20;99.90
30134;DHT22;16946;49.984;10.672;2022-08-04T00:38:48;19.30;99.90
30134;DHT22;16946;49.984;10.672;2022-08-04T00:39:20;19.30;99.90
30134;DHT22;16946;49.984;10.672;2022-08-04T00:39:55;19.40;99.90
30134;DHT22;16946;49.984;10.672;2022-08-04T00:40:40;19.50;99.90
30134;DHT22;16946;49.984;10.672;2022-08-04T00:41:26;19.60;99.90
30134;DHT22;16946;49.984;10.672;2022-08-04T00:43:15;19.50;99.90
30134;DHT22;16946;49.984;10.672;2022-08-04T00:43:57;19.70;99.90
30134;DHT22;16946;49.984;10.672;2022-08-04T00:44:50;19.80;99.90
30134;DHT22;16946;49.984;10.672;2022-08-04T00:46:31;19.70;99.90
30134;DHT22;16946;49.984;10.672;2022-08-04T00:47:31;19.70;99.90
30134;DHT22;16946;49.984;10.672;2022-08-04T00:48:36;19.40;99.90
30134;DHT22;16946;49.984;10.672;2022-08-04T00:49:20;19.20;99.90
30134;DHT22;16946;49.984;10.672;2022-08-04T00:51:29;19.10;99.90
30134;DHT22;16946;49.984;10.672;2022-08-04T00:54:00;19.80;99.90
30134;DHT22;16946;49.984;10.672;2022-08-04T00:59:56;19.20;99.90
30134;DHT22;16946;49.984;10.672;2022-08-04T01:00:47;19.20;99.90
30134;DHT22;16946;49.984;10.672;2022-08-04T01:02:36;19.70;99.90
30134;DHT22;16946;49.984;10.672;2022-08-04T01:03:17;19.80;99.90
30134;DHT22;16946;49.984;10.672;2022-08-04T01:04:47;19.60;99.90
30134;DHT22;16946;49.984;10.672;2022-08-04T01:05:35;19.30;99.90
30134;DHT22;16946;49.984;10.672;2022-08-04T01:09:03;19.10;99.90
30134;DHT22;16946;49.984;10.672;2022-08-04T01:09:49;19.30;99.90
30134;DHT22;16946;49.984;10.672;2022-08-04T01:10:47;19.50;99.90
30134;DHT22;16946;49.984;10.672;2022-08-04T01:15:38;19.40;99.90
30134;DHT22;16946;49.984;10.672;2022-08-04T01:16:09;19.60;99.90
30134;DHT22;16946;49.984;10.672;2022-08-04T01:16:51;19.60;99.90
30134;DHT22;16946;49.984;10.672;2022-08-04T01:17:42;19.60;99.90
30134;DHT22;16946;49.984;10.672;2022-08-04T01:18:21;19.80;99.90
30134;DHT22;16946;49.984;10.672;2022-08-04T01:19:02;20.00;99.90
30134;DHT22;16946;49.984;10.672;2022-08-04T01:19:40;20.00;99.90
30134;DHT22;16946;49.984;10.672;2022-08-04T01:20:21;20.00;99.90
30134;DHT22;16946;49.984;10.672;2022-08-04T01:23:31;19.70;99.90
30134;DHT22;16946;49.984;10.672;2022-08-04T01:27:08;19.90;99.90
30134;DHT22;16946;49.984;10.672;2022-08-04T01:29:07;19.80;99.90
30134;DHT22;16946;49.984;10.672;2022-08-04T01:29:49;19.70;99.90
30134;DHT22;16946;49.984;10.672;2022-08-04T01:30:21;19.60;99.90
30134;DHT22;16946;49.984;10.672;2022-08-04T01:30:56;19.70;99.90
30134;DHT22;16946;49.984;10.672;2022-08-04T01:32:01;19.70;99.90
30134;DHT22;16946;49.984;10.672;2022-08-04T01:32:36;19.50;99.90
30134;DHT22;16946;49.984;10.672;2022-08-04T01:33:13;19.20;99.90
30134;DHT22;16946;49.984;10.672;2022-08-04T01:33:47;19.30;99.90
30134;DHT22;16946;49.984;10.672;2022-08-04T01:34:21;19.30;99.90
30134;DHT22;16946;49.984;10.672;2022-08-04T01:35:13;19.40;99.90
30134;DHT22;16946;49.984;10.672;2022-08-04T01:35:50;19.60;99.90
30134;DHT22;16946;49.984;10.672;2022-08-04T01:36:23;19.60;99.90
30134;DHT22;16946;49.984;10.672;2022-08-04T01:37:56;19.70;99.90
30134;DHT22;16946;49.984;10.672;2022-08-04T01:38:34;19.90;99.90
30134;DHT22;16946;49.984;10.672;2022-08-04T01:39:06;20.00;99.90
30134;DHT22;16946;49.984;10.672;2022-08-04T01:40:03;20.10;99.90
30134;DHT22;16946;49.984;10.672;2022-08-04T01:40:36;20.10;99.90
30134;DHT22;16946;49.984;10.672;2022-08-04T01:41:13;20.10;99.90
30134;DHT22;16946;49.984;10.672;2022-08-04T01:41:44;20.20;99.90
30134;DHT22;16946;49.984;10.672;2022-08-04T01:42:18;20.20;99.90
30134;DHT22;16946;49.984;10.672;2022-08-04T01:42:52;20.10;99.90
30134;DHT22;16946;49.984;10.672;2022-08-04T01:43:23;20.00;99.90
30134;DHT22;16946;49.984;10.672;2022-08-04T01:43:56;20.00;99.90
30134;DHT22;16946;49.984;10.672;2022-08-04T01:44:30;20.00;99.90
30134;DHT22;16946;49.984;10.672;2022-08-04T01:45:09;20.00;99.90
30134;DHT22;16946;49.984;10.672;2022-08-04T01:45:40;20.00;99.90
30134;DHT22;16946;49.984;10.672;2022-08-04T01:46:13;20.00;99.90
30134;DHT22;16946;49.984;10.672;2022-08-04T01:46:49;20.00;99.90
30134;DHT22;16946;49.984;10.672;2022-08-04T01:47:20;20.00;99.90
30134;DHT22;16946;49.984;10.672;2022-08-04T01:47:53;20.10;99.90
30134;DHT22;16946;49.984;10.672;2022-08-04T01:48:25;20.00;99.90
30134;DHT22;16946;49.984;10.672;2022-08-04T01:48:57;19.90;99.90
30134;DHT22;16946;49.984;10.672;2022-08-04T01:49:31;20.00;99.90
30134;DHT22;16946;49.984;10.672;2022-08-04T01:50:08;19.90;99.90
30134;DHT22;16946;49.984;10.672;2022-08-04T01:50:40;19.80;99.90
30134;DHT22;16946;49.984;10.672;2022-08-04T01:51:11;19.80;99.90
30134;DHT22;16946;49.984;10.672;2022-08-04T01:51:42;19.90;99.90
30134;DHT22;16946;49.984;10.672;2022-08-04T01:52:15;20.00;99.90
30134;DHT22;16946;49.984;10.672;2022-08-04T01:52:46;20.10;99.90
30134;DHT22;16946;49.984;10.672;2022-08-04T01:53:18;20.00;99.90
30134;DHT22;16946;49.984;10.672;2022-08-04T01:53:49;20.10;99.90
30134;DHT22;16946;49.984;10.672;2022-08-04T01:54:20;20.00;99.90
30134;DHT22;16946;49.984;10.672;2022-08-04T01:54:51;20.10;99.90
30134;DHT22;16946;49.984;10.672;2022-08-04T01:55:22;20.10;99.90
30134;DHT22;16946;49.984;10.672;2022-08-04T01:55:56;20.20;99.90
30134;DHT22;16946;49.984;10.672;2022-08-04T01:56:27;20.20;99.90
30134;DHT22;16946;49.984;10.672;2022-08-04T01:57:00;20.20;99.90
30134;DHT22;16946;49.984;10.672;2022-08-04T01:57:44;20.30;99.90
30134;DHT22;16946;49.984;10.672;2022-08-04T01:58:18;20.30;99.90
30134;DHT22;16946;49.984;10.672;2022-08-04T01:58:48;20.40;99.90
30134;DHT22;16946;49.984;10.672;2022-08-04T01:59:20;20.40;99.90
30134;DHT22;16946;49.984;10.672;2022-08-04T01:59:52;20.40;99.90
30134;DHT22;16946;49.984;10.672;2022-08-04T02:00:27;20.40;99.90
30134;DHT22;16946;49.984;10.672;2022-08-04T02:01:03;20.40;99.90
30134;DHT22;16946;49.984;10.672;2022-08-04T02:01:37;20.50;99.90
30134;DHT22;16946;49.984;10.672;2022-08-04T02:02:07;20.50;99.90
30134;DHT22;16946;49.984;10.672;2022-08-04T02:02:38;20.60;99.90
30134;DHT22;16946;49.984;10.672;2022-08-04T02:03:08;20.60;99.90
30134;DHT22;16946;49.984;10.672;2022-08-04T02:03:43;20.50;99.90
30134;DHT22;16946;49.984;10.672;2022-08-04T02:04:16;20.50;99.90
30134;DHT22;16946;49.984;10.672;2022-08-04T02:04:47;20.40;99.90
30134;DHT22;16946;49.984;10.672;2022-08-04T02:05:21;20.40;99.90
30134;DHT22;16946;49.984;10.672;2022-08-04T02:05:58;20.30;99.90
30134;DHT22;16946;49.984;10.672;2022-08-04T02:06:49;20.30;99.90
30134;DHT22;16946;49.984;10.672;2022-08-04T02:08:50;19.90;99.90
30134;DHT22;16946;49.984;10.672;2022-08-04T02:09:28;19.90;99.90
30134;DHT22;16946;49.984;10.672;2022-08-04T02:10:22;20.00;99.90
30134;DHT22;16946;49.984;10.672;2022-08-04T02:11:08;19.90;99.90
30134;DHT22;16946;49.984;10.672;2022-08-04T02:11:51;19.90;99.90
30134;DHT22;16946;49.984;10.672;2022-08-04T02:14:59;20.20;99.90
30134;DHT22;16946;49.984;10.672;2022-08-04T02:15:57;20.20;99.90
30134;DHT22;16946;49.984;10.672;2022-08-04T02:16:34;20.20;99.90
30134;DHT22;16946;49.984;10.672;2022-08-04T02:17:12;20.30;99.90
30134;DHT22;16946;49.984;10.672;2022-08-04T02:18:07;20.40;99.90
30134;DHT22;16946;49.984;10.672;2022-08-04T02:18:48;20.50;99.90
30134;DHT22;16946;49.984;10.672;2022-08-04T02:19:34;20.50;99.90
30134;DHT22;16946;49.984;10.672;2022-08-04T02:20:20;20.60;99.90
30134;DHT22;16946;49.984;10.672;2022-08-04T02:20:58;20.50;99.90
30134;DHT22;16946;49.984;10.672;2022-08-04T02:21:31;20.00;99.90
30134;DHT22;16946;49.984;10.672;2022-08-04T02:22:09;19.70;99.90
30134;DHT22;16946;49.984;10.672;2022-08-04T02:22:52;19.50;99.90
30134;DHT22;16946;49.984;10.672;2022-08-04T02:23:35;19.40;99.90
30134;DHT22;16946;49.984;10.672;2022-08-04T02:24:07;19.30;99.90
30134;DHT22;16946;49.984;10.672;2022-08-04T02:24:49;19.40;99.90
30134;DHT22;16946;49.984;10.672;2022-08-04T02:25:27;19.50;99.90
30134;DHT22;16946;49.984;10.672;2022-08-04T02:26:03;19.50;99.90
30134;DHT22;16946;49.984;10.672;2022-08-04T02:26:34;19.60;99.90
30134;DHT22;16946;49.984;10.672;2022-08-04T02:27:08;19.60;99.90
30134;DHT22;16946;49.984;10.672;2022-08-04T02:28:39;19.60;99.90
30134;DHT22;16946;49.984;10.672;2022-08-04T02:29:19;19.70;99.90
30134;DHT22;16946;49.984;10.672;2022-08-04T02:29:50;19.80;99.90
30134;DHT22;16946;49.984;10.672;2022-08-04T02:30:30;19.90;99.90
30134;DHT22;16946;49.984;10.672;2022-08-04T02:31:30;20.00;99.90
30134;DHT22;16946;49.984;10.672;2022-08-04T02:32:04;20.10;99.90
30134;DHT22;16946;49.984;10.672;2022-08-04T02:32:36;20.10;99.90
30134;DHT22;16946;49.984;10.672;2022-08-04T02:33:12;20.20;99.90
30134;DHT22;16946;49.984;10.672;2022-08-04T02:34:05;20.20;99.90
30134;DHT22;16946;49.984;10.672;2022-08-04T02:34:58;20.20;99.90
30134;DHT22;16946;49.984;10.672;2022-08-04T02:35:35;20.00;99.90
30134;DHT22;16946;49.984;10.672;2022-08-04T02:36:10;20.10;99.90
30134;DHT22;16946;49.984;10.672;2022-08-04T02:36:43;20.10;99.90
30134;DHT22;16946;49.984;10.672;2022-08-04T02:37:16;20.20;99.90
30134;DHT22;16946;49.984;10.672;2022-08-04T02:37:50;20.10;99.90
30134;DHT22;16946;49.984;10.672;2022-08-04T02:38:46;20.20;99.90
30134;DHT22;16946;49.984;10.672;2022-08-04T02:39:22;20.00;99.90
30134;DHT22;16946;49.984;10.672;2022-08-04T02:39:53;20.10;99.90
30134;DHT22;16946;49.984;10.672;2022-08-04T02:40:29;20.10;99.90
30134;DHT22;16946;49.984;10.672;2022-08-04T02:41:00;20.20;99.90
30134;DHT22;16946;49.984;10.672;2022-08-04T02:41:32;20.20;99.90
30134;DHT22;16946;49.984;10.672;2022-08-04T02:42:04;20.20;99.90
30134;DHT22;16946;49.984;10.672;2022-08-04T02:42:35;20.00;99.90
30134;DHT22;16946;49.984;10.672;2022-08-04T02:43:08;19.90;99.90
30134;DHT22;16946;49.984;10.672;2022-08-04T02:43:41;19.80;99.90
30134;DHT22;16946;49.984;10.672;2022-08-04T02:44:12;19.80;99.90
30134;DHT22;16946;49.984;10.672;2022-08-04T02:44:48;19.90;99.90
30134;DHT22;16946;49.984;10.672;2022-08-04T02:45:22;19.90;99.90
30134;DHT22;16946;49.984;10.672;2022-08-04T02:45:55;19.90;99.90
30134;DHT22;16946;49.984;10.672;2022-08-04T02:46:27;19.90;99.90
30134;DHT22;16946;49.984;10.672;2022-08-04T02:46:59;19.90;99.90
30134;DHT22;16946;49.984;10.672;2022-08-04T02:47:32;19.90;99.90
30134;DHT22;16946;49.984;10.672;2022-08-04T02:48:04;19.90;99.90
30134;DHT22;16946;49.984;10.672;2022-08-04T02:48:39;19.90;99.90
30134;DHT22;16946;49.984;10.672;2022-08-04T02:49:13;20.00;99.90
30134;DHT22;16946;49.984;10.672;2022-08-04T02:49:44;19.90;99.90
30134;DHT22;16946;49.984;10.672;2022-08-04T02:50:17;19.80;99.90
30134;DHT22;16946;49.984;10.672;2022-08-04T02:50:48;19.60;99.90
30134;DHT22;16946;49.984;10.672;2022-08-04T02:51:28;19.40;99.90
30134;DHT22;16946;49.984;10.672;2022-08-04T02:51:59;19.40;99.90
30134;DHT22;16946;49.984;10.672;2022-08-04T02:52:30;19.30;99.90
30134;DHT22;16946;49.984;10.672;2022-08-04T02:53:02;19.30;99.90
30134;DHT22;16946;49.984;10.672;2022-08-04T02:53:36;19.20;99.90
30134;DHT22;16946;49.984;10.672;2022-08-04T02:54:07;19.20;99.90
30134;DHT22;16946;49.984;10.672;2022-08-04T02:54:40;19.10;99.90
30134;DHT22;16946;49.984;10.672;2022-08-04T02:55:12;19.10;99.90
30134;DHT22;16946;49.984;10.672;2022-08-04T02:55:43;19.10;99.90
30134;DHT22;16946;49.984;10.672;2022-08-04T02:56:18;19.10;99.90
30134;DHT22;16946;49.984;10.672;2022-08-04T02:56:51;19.10;99.90
30134;DHT22;16946;49.984;10.672;2022-08-04T02:57:27;19.10;99.90
30134;DHT22;16946;49.984;10.672;2022-08-04T02:58:01;19.10;99.90
30134;DHT22;16946;49.984;10.672;2022-08-04T02:58:34;19.10;99.90
30134;DHT22;16946;49.984;10.672;2022-08-04T02:59:09;19.20;99.90
30134;DHT22;16946;49.984;10.672;2022-08-04T03:00:14;19.10;99.90
30134;DHT22;16946;49.984;10.672;2022-08-04T03:00:45;19.10;99.90
30134;DHT22;16946;49.984;10.672;2022-08-04T03:01:17;19.10;99.90
30134;DHT22;16946;49.984;10.672;2022-08-04T03:01:48;19.00;99.90
30134;DHT22;16946;49.984;10.672;2022-08-04T03:02:27;19.00;99.90
30134;DHT22;16946;49.984;10.672;2022-08-04T03:04:00;18.70;99.90
30134;DHT22;16946;49.984;10.672;2022-08-04T03:05:52;18.20;99.90
30134;DHT22;16946;49.984;10.672;2022-08-04T03:06:52;18.00;99.90
30134;DHT22;16946;49.984;10.672;2022-08-04T03:08:12;18.10;99.90
30134;DHT22;16946;49.984;10.672;2022-08-04T03:08:58;18.30;99.90
30134;DHT22;16946;49.984;10.672;2022-08-04T03:10:00;18.40;99.90
30134;DHT22;16946;49.984;10.672;2022-08-04T03:12:40;18.80;99.90
30134;DHT22;16946;49.984;10.672;2022-08-04T03:12:56;19.00;99.90
30134;DHT22;16946;49.984;10.672;2022-08-04T03:22:28;19.10;99.90
30134;DHT22;16946;49.984;10.672;2022-08-04T03:25:32;18.90;99.90
30134;DHT22;16946;49.984;10.672;2022-08-04T03:26:14;18.80;99.90
30134;DHT22;16946;49.984;10.672;2022-08-04T03:27:51;18.60;99.90
30134;DHT22;16946;49.984;10.672;2022-08-04T03:33:13;17.70;99.90
30134;DHT22;16946;49.984;10.672;2022-08-04T03:34:45;17.60;99.90
30134;DHT22;16946;49.984;10.672;2022-08-04T03:36:34;17.40;99.90
30134;DHT22;16946;49.984;10.672;2022-08-04T03:40:34;17.30;99.90
30134;DHT22;16946;49.984;10.672;2022-08-04T03:42:33;17.20;99.90
30134;DHT22;16946;49.984;10.672;2022-08-04T03:44:41;17.20;99.90
30134;DHT22;16946;49.984;10.672;2022-08-04T03:45:38;17.10;99.90
30134;DHT22;16946;49.984;10.672;2022-08-04T03:50:07;17.20;99.90
30134;DHT22;16946;49.984;10.672;2022-08-04T03:53:47;17.20;99.90
30134;DHT22;16946;49.984;10.672;2022-08-04T03:55:34;17.10;99.90
30134;DHT22;16946;49.984;10.672;2022-08-04T03:57:54;17.00;99.90
30134;DHT22;16946;49.984;10.672;2022-08-04T04:06:34;16.80;99.90
30134;DHT22;16946;49.984;10.672;2022-08-04T04:09:55;16.90;99.90
30134;DHT22;16946;49.984;10.672;2022-08-04T04:14:05;17.10;99.90
30134;DHT22;16946;49.984;10.672;2022-08-04T04:15:13;17.00;99.90
30134;DHT22;16946;49.984;10.672;2022-08-04T04:17:03;16.90;99.90
30134;DHT22;16946;49.984;10.672;2022-08-04T04:19:00;17.00;99.90
30134;DHT22;16946;49.984;10.672;2022-08-04T04:20:57;16.80;99.90
30134;DHT22;16946;49.984;10.672;2022-08-04T04:21:50;16.80;99.90
30134;DHT22;16946;49.984;10.672;2022-08-04T04:27:15;17.30;99.90
30134;DHT22;16946;49.984;10.672;2022-08-04T04:30:51;17.20;99.90
30134;DHT22;16946;49.984;10.672;2022-08-04T04:31:46;17.20;99.90
30134;DHT22;16946;49.984;10.672;2022-08-04T04:33:27;17.40;99.90
30134;DHT22;16946;49.984;10.672;2022-08-04T04:34:25;17.50;99.90
30134;DHT22;16946;49.984;10.672;2022-08-04T04:35:06;17.50;99.90
30134;DHT22;16946;49.984;10.672;2022-08-04T04:36:01;17.50;99.90
30134;DHT22;16946;49.984;10.672;2022-08-04T04:40:19;17.70;99.90
30134;DHT22;16946;49.984;10.672;2022-08-04T04:42:14;17.70;99.90
30134;DHT22;16946;49.984;10.672;2022-08-04T04:46:10;17.70;99.90
30134;DHT22;16946;49.984;10.672;2022-08-04T04:47:05;17.70;99.90
30134;DHT22;16946;49.984;10.672;2022-08-04T04:47:55;17.80;99.90
30134;DHT22;16946;49.984;10.672;2022-08-04T04:48:35;17.80;99.90
30134;DHT22;16946;49.984;10.672;2022-08-04T04:50:17;17.70;99.90
30134;DHT22;16946;49.984;10.672;2022-08-04T04:51:36;17.80;99.90
30134;DHT22;16946;49.984;10.672;2022-08-04T04:52:23;17.80;99.90
30134;DHT22;16946;49.984;10.672;2022-08-04T04:53:05;17.90;99.90
30134;DHT22;16946;49.984;10.672;2022-08-04T04:55:57;18.20;99.90
30134;DHT22;16946;49.984;10.672;2022-08-04T04:56:50;18.10;99.90
30134;DHT22;16946;49.984;10.672;2022-08-04T04:57:23;18.10;99.90
30134;DHT22;16946;49.984;10.672;2022-08-04T04:57:57;18.20;99.90
30134;DHT22;16946;49.984;10.672;2022-08-04T04:58:31;18.20;99.90
30134;DHT22;16946;49.984;10.672;2022-08-04T04:59:09;18.30;99.90
30134;DHT22;16946;49.984;10.672;2022-08-04T05:00:18;18.40;99.90
30134;DHT22;16946;49.984;10.672;2022-08-04T05:01:05;18.40;99.90
30134;DHT22;16946;49.984;10.672;2022-08-04T05:03:08;18.40;99.90
30134;DHT22;16946;49.984;10.672;2022-08-04T05:04:07;18.40;99.90
30134;DHT22;16946;49.984;10.672;2022-08-04T05:07:21;18.90;99.90
30134;DHT22;16946;49.984;10.672;2022-08-04T05:08:29;19.10;99.90
30134;DHT22;16946;49.984;10.672;2022-08-04T05:09:30;19.20;99.90
30134;DHT22;16946;49.984;10.672;2022-08-04T05:14:17;19.80;99.90
30134;DHT22;16946;49.984;10.672;2022-08-04T05:14:51;19.80;99.90
30134;DHT22;16946;49.984;10.672;2022-08-04T05:15:29;19.80;99.90
30134;DHT22;16946;49.984;10.672;2022-08-04T05:16:10;19.90;99.90
30134;DHT22;16946;49.984;10.672;2022-08-04T05:16:51;19.90;99.90
30134;DHT22;16946;49.984;10.672;2022-08-04T05:17:35;20.00;99.90
30134;DHT22;16946;49.984;10.672;2022-08-04T05:18:08;20.10;99.90
30134;DHT22;16946;49.984;10.672;2022-08-04T05:18:45;20.20;99.90
30134;DHT22;16946;49.984;10.672;2022-08-04T05:21:24;20.20;99.90
30134;DHT22;16946;49.984;10.672;2022-08-04T05:22:10;20.20;99.90
30134;DHT22;16946;49.984;10.672;2022-08-04T05:22:44;20.20;99.90
30134;DHT22;16946;49.984;10.672;2022-08-04T05:23:37;20.20;99.90
30134;DHT22;16946;49.984;10.672;2022-08-04T05:24:11;20.20;99.90
30134;DHT22;16946;49.984;10.672;2022-08-04T05:24:44;20.30;99.90
30134;DHT22;16946;49.984;10.672;2022-08-04T05:25:26;20.40;99.90
30134;DHT22;16946;49.984;10.672;2022-08-04T05:26:00;20.40;99.90
30134;DHT22;16946;49.984;10.672;2022-08-04T05:26:34;20.50;99.90
30134;DHT22;16946;49.984;10.672;2022-08-04T05:27:15;20.70;99.90
30134;DHT22;16946;49.984;10.672;2022-08-04T05:28:08;20.80;99.90
30134;DHT22;16946;49.984;10.672;2022-08-04T05:29:02;20.80;99.90
30134;DHT22;16946;49.984;10.672;2022-08-04T05:29:37;20.90;99.90
30134;DHT22;16946;49.984;10.672;2022-08-04T05:30:09;21.10;99.90
30134;DHT22;16946;49.984;10.672;2022-08-04T05:30:46;21.20;99.90
30134;DHT22;16946;49.984;10.672;2022-08-04T05:31:22;21.30;99.90
30134;DHT22;16946;49.984;10.672;2022-08-04T05:31:55;21.40;99.90
30134;DHT22;16946;49.984;10.672;2022-08-04T05:32:30;21.60;99.90
30134;DHT22;16946;49.984;10.672;2022-08-04T05:33:08;21.70;99.90
30134;DHT22;16946;49.984;10.672;2022-08-04T05:33:49;21.90;99.90
30134;DHT22;16946;49.984;10.672;2022-08-04T05:34:28;22.00;99.90
30134;DHT22;16946;49.984;10.672;2022-08-04T05:35:04;22.10;99.90
30134;DHT22;16946;49.984;10.672;2022-08-04T05:35:45;22.30;99.90
30134;DHT22;16946;49.984;10.672;2022-08-04T05:36:19;22.40;99.90
30134;DHT22;16946;49.984;10.672;2022-08-04T05:36:54;22.50;99.90
30134;DHT22;16946;49.984;10.672;2022-08-04T05:37:26;22.60;99.90
30134;DHT22;16946;49.984;10.672;2022-08-04T05:38:00;22.80;99.90
30134;DHT22;16946;49.984;10.672;2022-08-04T05:38:37;23.00;99.90
30134;DHT22;16946;49.984;10.672;2022-08-04T05:39:27;23.00;99.90
30134;DHT22;16946;49.984;10.672;2022-08-04T05:40:03;23.20;99.90
30134;DHT22;16946;49.984;10.672;2022-08-04T05:40:36;23.20;99.90
30134;DHT22;16946;49.984;10.672;2022-08-04T05:41:08;23.30;99.90
30134;DHT22;16946;49.984;10.672;2022-08-04T05:41:40;23.40;99.90
30134;DHT22;16946;49.984;10.672;2022-08-04T05:42:12;23.50;99.90
30134;DHT22;16946;49.984;10.672;2022-08-04T05:42:43;23.50;99.90
30134;DHT22;16946;49.984;10.672;2022-08-04T05:43:15;23.60;99.90
30134;DHT22;16946;49.984;10.672;2022-08-04T05:43:47;23.60;99.90
30134;DHT22;16946;49.984;10.672;2022-08-04T05:44:20;23.70;99.90
30134;DHT22;16946;49.984;10.672;2022-08-04T05:44:51;23.80;99.90
30134;DHT22;16946;49.984;10.672;2022-08-04T05:45:23;23.90;99.90
30134;DHT22;16946;49.984;10.672;2022-08-04T05:45:55;24.00;99.90
30134;DHT22;16946;49.984;10.672;2022-08-04T05:46:28;24.00;99.90
30134;DHT22;16946;49.984;10.672;2022-08-04T05:47:00;24.00;99.90
30134;DHT22;16946;49.984;10.672;2022-08-04T05:47:32;24.10;99.90
30134;DHT22;16946;49.984;10.672;2022-08-04T05:48:06;24.10;99.90
30134;DHT22;16946;49.984;10.672;2022-08-04T05:48:38;24.30;99.90
30134;DHT22;16946;49.984;10.672;2022-08-04T05:49:09;24.50;99.90
30134;DHT22;16946;49.984;10.672;2022-08-04T05:49:40;24.50;99.90
30134;DHT22;16946;49.984;10.672;2022-08-04T05:50:12;24.60;99.90
30134;DHT22;16946;49.984;10.672;2022-08-04T05:50:44;24.60;99.90
30134;DHT22;16946;49.984;10.672;2022-08-04T05:51:15;24.70;99.90
30134;DHT22;16946;49.984;10.672;2022-08-04T05:51:46;24.70;99.90
30134;DHT22;16946;49.984;10.672;2022-08-04T05:52:18;24.70;99.90
30134;DHT22;16946;49.984;10.672;2022-08-04T05:52:50;24.80;99.90
30134;DHT22;16946;49.984;10.672;2022-08-04T05:53:22;24.90;99.90
30134;DHT22;16946;49.984;10.672;2022-08-04T05:53:53;24.80;99.90
30134;DHT22;16946;49.984;10.672;2022-08-04T05:54:25;24.70;99.90
30134;DHT22;16946;49.984;10.672;2022-08-04T05:55:00;24.70;99.90
30134;DHT22;16946;49.984;10.672;2022-08-04T05:55:32;24.80;99.90
30134;DHT22;16946;49.984;10.672;2022-08-04T05:56:04;24.90;99.90
30134;DHT22;16946;49.984;10.672;2022-08-04T05:56:36;24.90;99.90